CDU weather

Camden Airport
New South Wales, Australia

Public forecast

Using degrees Celsius for public forecast. Weather courtesy of forecast.io.

METAR (pilot weather report)

Closest report is Sydney Kingsford Smith International Airport, 25.0 nm (46.4 km) ENE. Retrieved 2018/05/28 03:00 UTC (4 minutes ago):

YSSY 280300Z 02004KT 9999 FEW047 SCT260 20/11 Q1023

TAF (pilot weather forecast)

Forecast is more than 12 hours old.

Closest forecast is Sydney Kingsford Smith International Airport, 25.0 nm (46.4 km) ENE. Retrieved 2018/05/27 00:00 UTC (1 day ago):

TAF YSSY 272303Z 2800/2906 32008KT CAVOK FM280400 03010KT CAVOK FM281200 29008KT CAVOK FM290400 02010KT CAVOK